KVES

Details ICAO KVES
Name DARKE CO
Region United States
Timezone America/New_York (UTC-5.0)
Plans Departing 2
Arriving 1
Stats Elevation 1,007 ft / 307 m (AMSL)
Location 40.204420° -84.531907°
Runways 1
Magnetic Variation 6.032° W
Sunrise 2017-12-15 12:55:02 UTC / 2017-12-15 07:55:02 Local
Sunset 2017-12-15 22:14:32 UTC / 2017-12-15 17:14:32 Local
Advertisement - Login to hide

Runways

ID Width Length Bearing (true) Bearing (mag) Surface Threshold Offset Overrun Length
09 75 ft / 23 m 4,502 ft / 1,372 m 88.52° 94.55° Asphalt 0 ft / 0 m 0 ft / 0 m
27 75 ft / 23 m 4,502 ft / 1,372 m 268.53° 274.56° Asphalt 0 ft / 0 m 0 ft / 0 m

Map

Weather


0- 5 10 15 20 25 30 35+ Temperature / ° C

Clouds and Precipitation
Forecast for 2017-12-15 12:00 UTC. Updated an hour ago

Ground ~20,000 ft ~40,000 ft Winds

METAR

KVES 150955Z AUTO 00000KT 10SM CLR M06/M08 A2999 RMK AO2

TAF

Not found

Frequencies

Unicom 122.80 MHz CTAF/UNICOM
Approach 134.45 MHz DAYTON APP/DEP
Warning: Do not use this data for real-world aviation or navigation. No guarantee of current accuracy is given.